Time;durP1;ratioP1;P1;durP2;ratioP2;P2;SDS_P1;SDS_P2;PMS_P1;PMS_P2;Temp;Humidity;BMP_temperature;BMP_pressure;BME280_temperature;BME280_humidity;BME280_pressure;Samples;Min_cycle;Max_cycle;Signal;HPM_P1;HPM_P2
2021/09/06 00:01:27;;;;;;;;;16.33;15.33;;;;;;;;4971403;28;52633;-54
2021/09/06 00:03:52;;;;;;;;;19.00;16.33;;;;;;;;4973164;28;51212;-53
2021/09/06 00:06:17;;;;;;;;;16.67;16.00;;;;;;;;4975629;28;52095;-54
2021/09/06 00:08:42;;;;;;;;;16.00;15.00;;;;;;;;4974992;28;50963;-53
2021/09/06 00:11:09;;;;;;;;;18.33;17.33;;;;;;;;4974722;28;51079;-54
2021/09/06 00:13:35;;;;;;;;;17.00;16.50;;;;;;;;4975051;28;51430;-54
2021/09/06 00:16:00;;;;;;;;;16.00;15.25;;;;;;;;4975113;28;51961;-52
2021/09/06 00:18:25;;;;;;;;;18.00;18.00;;;;;;;;4973841;28;51097;-53
2021/09/06 00:20:51;;;;;;;;;16.25;16.25;;;;;;;;4971685;28;51050;-53
2021/09/06 00:23:17;;;;;;;;;13.67;13.67;;;;;;;;4972142;28;51711;-52
2021/09/06 00:25:42;;;;;;;;;17.33;17.33;;;;;;;;4974800;28;50983;-54
2021/09/06 00:28:07;;;;;;;;;15.25;15.25;;;;;;;;4965258;28;50968;-53
2021/09/06 00:30:33;;;;;;;;;15.00;14.33;;;;;;;;4972834;28;51064;-54
2021/09/06 00:32:58;;;;;;;;;19.00;17.75;;;;;;;;4974072;28;51168;-54
2021/09/06 00:35:23;;;;;;;;;18.00;17.67;;;;;;;;4974498;28;52397;-54
2021/09/06 00:37:48;;;;;;;;;14.25;14.25;;;;;;;;4974817;28;50939;-53
2021/09/06 00:40:14;;;;;;;;;19.33;19.00;;;;;;;;4977249;28;51204;-53
2021/09/06 00:42:39;;;;;;;;;18.00;18.00;;;;;;;;4994398;28;51404;-54
2021/09/06 00:45:05;;;;;;;;;16.75;16.75;;;;;;;;4993099;28;51831;-53
2021/09/06 00:47:32;;;;;;;;;18.75;17.75;;;;;;;;4994318;28;51066;-54
2021/09/06 00:49:57;;;;;;;;;16.75;16.75;;;;;;;;4988373;28;51177;-53
2021/09/06 00:52:22;;;;;;;;;16.00;16.00;;;;;;;;4989682;28;51167;-54
2021/09/06 00:54:47;;;;;;;;;19.00;18.00;;;;;;;;4992447;28;53274;-56
2021/09/06 00:57:12;;;;;;;;;18.00;18.00;;;;;;;;4994223;28;51120;-55
2021/09/06 00:59:38;;;;;;;;;17.25;17.00;;;;;;;;4993186;28;50982;-55
2021/09/06 01:02:03;;;;;;;;;15.33;15.33;;;;;;;;4993695;28;51038;-53
2021/09/06 01:04:28;;;;;;;;;17.75;17.75;;;;;;;;4991023;28;52243;-52
2021/09/06 01:06:53;;;;;;;;;16.75;15.50;;;;;;;;4994332;28;51092;-54
2021/09/06 01:09:19;;;;;;;;;18.75;17.25;;;;;;;;4993417;28;51088;-54
2021/09/06 01:11:44;;;;;;;;;15.33;15.33;;;;;;;;4992841;28;51228;-54
2021/09/06 01:14:09;;;;;;;;;20.50;20.50;;;;;;;;4992692;28;51913;-56
2021/09/06 01:16:35;;;;;;;;;16.00;16.00;;;;;;;;4986085;28;51064;-53
2021/09/06 01:19:00;;;;;;;;;17.00;16.25;;;;;;;;4992262;28;51395;-54
2021/09/06 01:21:25;;;;;;;;;16.50;16.50;;;;;;;;4990190;28;52341;-53
2021/09/06 01:23:50;;;;;;;;;18.25;17.25;;;;;;;;4991684;28;51856;-55
2021/09/06 01:26:16;;;;;;;;;17.00;16.00;;;;;;;;4990351;28;50966;-53
2021/09/06 01:28:41;;;;;;;;;15.25;15.00;;;;;;;;4990431;28;51196;-52
2021/09/06 01:31:06;;;;;;;;;17.50;16.75;;;;;;;;4991838;28;51156;-53
2021/09/06 01:33:31;;;;;;;;;16.25;15.75;;;;;;;;4993790;28;51152;-52
2021/09/06 01:35:57;;;;;;;;;17.75;15.75;;;;;;;;4994143;28;51041;-53
2021/09/06 01:38:22;;;;;;;;;16.00;15.67;;;;;;;;4993310;28;50955;-53
2021/09/06 01:40:47;;;;;;;;;16.75;16.75;;;;;;;;4989665;28;51208;-53
2021/09/06 01:43:12;;;;;;;;;17.00;16.00;;;;;;;;5000987;28;52306;-51
2021/09/06 01:45:37;;;;;;;;;17.33;16.67;;;;;;;;4992908;28;51147;-57
2021/09/06 01:48:03;;;;;;;;;18.75;17.75;;;;;;;;4992742;28;51214;-54
2021/09/06 01:50:28;;;;;;;;;14.00;14.00;;;;;;;;4991201;28;51580;-55
2021/09/06 01:52:53;;;;;;;;;15.67;15.00;;;;;;;;4992013;28;50983;-56
2021/09/06 01:55:19;;;;;;;;;20.50;18.50;;;;;;;;4987813;28;51033;-54
2021/09/06 01:57:44;;;;;;;;;22.50;20.75;;;;;;;;4992878;28;51260;-54
2021/09/06 02:00:09;;;;;;;;;19.25;19.00;;;;;;;;4991709;28;52320;-54
2021/09/06 02:02:34;;;;;;;;;16.00;14.67;;;;;;;;4987186;28;52012;-54
2021/09/06 02:05:00;;;;;;;;;19.00;17.67;;;;;;;;4993268;28;51033;-50
2021/09/06 02:07:25;;;;;;;;;15.00;15.00;;;;;;;;4993355;28;50990;-54
2021/09/06 02:09:50;;;;;;;;;18.00;18.00;;;;;;;;4992678;28;51052;-53
2021/09/06 02:12:15;;;;;;;;;17.67;16.67;;;;;;;;4993584;28;51058;-54
2021/09/06 02:14:40;;;;;;;;;17.33;14.67;;;;;;;;4993428;28;51172;-55
2021/09/06 02:17:06;;;;;;;;;16.00;15.67;;;;;;;;4989421;28;51723;-54
2021/09/06 02:19:31;;;;;;;;;17.67;16.67;;;;;;;;4990456;28;52727;-54
2021/09/06 02:21:56;;;;;;;;;17.00;17.00;;;;;;;;4992079;28;54009;-54
2021/09/06 02:24:23;;;;;;;;;14.67;14.33;;;;;;;;4993256;28;51281;-54
2021/09/06 02:26:49;;;;;;;;;16.00;15.50;;;;;;;;4992590;28;51168;-53
2021/09/06 02:29:14;;;;;;;;;17.50;17.25;;;;;;;;4994429;28;51139;-53
2021/09/06 02:31:39;;;;;;;;;24.00;23.25;;;;;;;;4993312;28;51703;-54
2021/09/06 02:34:04;;;;;;;;;23.00;22.00;;;;;;;;4975506;28;51012;-54
2021/09/06 02:36:30;;;;;;;;;22.00;22.00;;;;;;;;4991588;28;51014;-55
2021/09/06 02:38:55;;;;;;;;;24.00;22.25;;;;;;;;4980758;28;51477;-54
2021/09/06 02:41:20;;;;;;;;;24.25;22.50;;;;;;;;4982803;28;51156;-54
2021/09/06 02:43:45;;;;;;;;;24.50;22.75;;;;;;;;4992757;28;51001;-54
2021/09/06 02:46:10;;;;;;;;;23.00;22.50;;;;;;;;4992368;28;51091;-54
2021/09/06 02:48:36;;;;;;;;;24.50;22.75;;;;;;;;5000539;28;51262;-54
2021/09/06 02:51:01;;;;;;;;;22.00;22.00;;;;;;;;4993408;28;52236;-52
2021/09/06 02:53:26;;;;;;;;;24.50;23.25;;;;;;;;4992866;28;51072;-53
2021/09/06 02:55:52;;;;;;;;;24.00;22.50;;;;;;;;4990660;28;51116;-54
2021/09/06 02:58:17;;;;;;;;;21.75;21.75;;;;;;;;4992567;28;52233;-53
2021/09/06 03:00:42;;;;;;;;;25.00;24.75;;;;;;;;4991736;28;51220;-52
2021/09/06 03:03:07;;;;;;;;;20.50;20.50;;;;;;;;4993079;28;50973;-53
2021/09/06 03:05:33;;;;;;;;;23.50;22.25;;;;;;;;4991921;28;50887;-53
2021/09/06 03:07:58;;;;;;;;;19.75;19.50;;;;;;;;4992385;28;50901;-55
2021/09/06 03:10:23;;;;;;;;;25.00;24.75;;;;;;;;4990786;28;53783;-54
2021/09/06 03:12:49;;;;;;;;;25.00;23.00;;;;;;;;4992713;28;51095;-55
2021/09/06 03:15:14;;;;;;;;;22.25;21.50;;;;;;;;4990425;28;50964;-54
2021/09/06 03:17:39;;;;;;;;;25.00;24.25;;;;;;;;4989927;28;51321;-54
2021/09/06 03:20:05;;;;;;;;;22.50;22.25;;;;;;;;4992463;28;51937;-55
2021/09/06 03:22:30;;;;;;;;;21.00;20.25;;;;;;;;4991077;28;51603;-52
2021/09/06 03:24:55;;;;;;;;;22.75;21.00;;;;;;;;4992721;28;51152;-53
2021/09/06 03:27:20;;;;;;;;;20.25;20.00;;;;;;;;4990291;28;51092;-54
2021/09/06 03:29:46;;;;;;;;;22.25;22.25;;;;;;;;4992083;28;52225;-54
2021/09/06 03:32:11;;;;;;;;;20.75;20.25;;;;;;;;4990994;28;51140;-54
2021/09/06 03:34:37;;;;;;;;;23.50;22.75;;;;;;;;4992741;28;51314;-55
2021/09/06 03:37:02;;;;;;;;;22.00;21.25;;;;;;;;4986249;28;51250;-52
2021/09/06 03:39:28;;;;;;;;;22.00;19.50;;;;;;;;4990813;28;52383;-53
2021/09/06 03:41:53;;;;;;;;;21.75;21.50;;;;;;;;4992344;28;50880;-54
2021/09/06 03:44:19;;;;;;;;;22.50;21.75;;;;;;;;4993169;28;51179;-55
2021/09/06 03:46:44;;;;;;;;;22.25;22.00;;;;;;;;4988878;28;51303;-54
2021/09/06 03:49:09;;;;;;;;;24.50;23.75;;;;;;;;4992010;28;52004;-54
2021/09/06 03:51:35;;;;;;;;;23.50;21.50;;;;;;;;4991406;28;50993;-54
2021/09/06 03:54:00;;;;;;;;;18.25;18.25;;;;;;;;4991459;28;50931;-54
2021/09/06 03:56:25;;;;;;;;;18.75;18.00;;;;;;;;4981975;28;51457;-55
2021/09/06 03:58:50;;;;;;;;;19.50;18.75;;;;;;;;4990137;28;52151;-54
2021/09/06 04:01:15;;;;;;;;;22.25;21.50;;;;;;;;4989796;28;51136;-53
2021/09/06 04:03:41;;;;;;;;;22.50;21.50;;;;;;;;4989117;28;51198;-54
2021/09/06 04:06:06;;;;;;;;;23.00;23.00;;;;;;;;4991430;28;51396;-53
2021/09/06 04:08:31;;;;;;;;;22.25;21.25;;;;;;;;4990750;28;51991;-53
2021/09/06 04:10:56;;;;;;;;;21.00;19.75;;;;;;;;4990541;28;51129;-52
2021/09/06 04:13:22;;;;;;;;;22.00;21.25;;;;;;;;4989969;28;51198;-54
2021/09/06 04:15:47;;;;;;;;;22.50;21.75;;;;;;;;4989624;28;51137;-55
2021/09/06 04:18:14;;;;;;;;;21.50;21.50;;;;;;;;4991677;28;52124;-53
2021/09/06 04:20:39;;;;;;;;;24.25;22.00;;;;;;;;4991967;28;51037;-54
2021/09/06 04:23:04;;;;;;;;;22.75;22.75;;;;;;;;4991577;28;52411;-55
2021/09/06 04:25:29;;;;;;;;;20.25;20.25;;;;;;;;4990501;28;51011;-55
2021/09/06 04:27:55;;;;;;;;;20.00;20.00;;;;;;;;4990123;28;51159;-53
2021/09/06 04:30:20;;;;;;;;;21.50;19.75;;;;;;;;4989973;28;50967;-53
2021/09/06 04:32:45;;;;;;;;;23.00;21.50;;;;;;;;4989186;28;51093;-53
2021/09/06 04:35:10;;;;;;;;;22.75;21.75;;;;;;;;4991968;28;51295;-53
2021/09/06 04:37:36;;;;;;;;;21.00;20.25;;;;;;;;4990503;28;51203;-53
2021/09/06 04:40:02;;;;;;;;;24.50;22.25;;;;;;;;4993128;28;51270;-56
2021/09/06 04:42:27;;;;;;;;;22.00;20.50;;;;;;;;4988828;28;51387;-55
2021/09/06 04:44:52;;;;;;;;;22.50;21.00;;;;;;;;4992379;28;51151;-53
2021/09/06 04:47:19;;;;;;;;;21.00;19.25;;;;;;;;4991063;28;52586;-54
2021/09/06 04:49:44;;;;;;;;;22.25;21.75;;;;;;;;4994440;28;51160;-53
2021/09/06 04:52:10;;;;;;;;;24.50;23.00;;;;;;;;4994339;28;51150;-55
2021/09/06 04:54:35;;;;;;;;;21.50;20.00;;;;;;;;4992481;28;51196;-55
2021/09/06 04:57:01;;;;;;;;;22.75;22.25;;;;;;;;4993592;28;51059;-54
2021/09/06 04:59:26;;;;;;;;;25.75;24.25;;;;;;;;4995996;28;51089;-55
2021/09/06 05:01:51;;;;;;;;;22.50;21.50;;;;;;;;4993705;28;51473;-54
2021/09/06 05:04:16;;;;;;;;;23.25;22.25;;;;;;;;4992206;28;51130;-54
2021/09/06 05:06:41;;;;;;;;;21.75;21.00;;;;;;;;4993762;28;51176;-54
2021/09/06 05:09:07;;;;;;;;;23.75;23.75;;;;;;;;4993355;28;51078;-55
2021/09/06 05:11:32;;;;;;;;;21.00;19.25;;;;;;;;4995821;28;51335;-53
2021/09/06 05:13:57;;;;;;;;;21.50;21.00;;;;;;;;4994250;28;50895;-54
2021/09/06 05:16:23;;;;;;;;;22.50;21.75;;;;;;;;4991323;28;52117;-53
2021/09/06 05:18:48;;;;;;;;;24.25;24.25;;;;;;;;4993566;28;50907;-54
2021/09/06 05:21:13;;;;;;;;;23.00;22.25;;;;;;;;4991907;28;51066;-56
2021/09/06 05:23:38;;;;;;;;;23.25;23.25;;;;;;;;4993270;28;50793;-54
2021/09/06 05:26:03;;;;;;;;;21.00;19.50;;;;;;;;4991738;28;52106;-56
2021/09/06 05:28:29;;;;;;;;;23.25;22.50;;;;;;;;4993384;28;51010;-55
2021/09/06 05:30:54;;;;;;;;;21.67;21.00;;;;;;;;4995612;28;51141;-54
2021/09/06 05:33:19;;;;;;;;;23.25;22.50;;;;;;;;4991956;28;50872;-55
2021/09/06 05:35:45;;;;;;;;;23.00;23.00;;;;;;;;4992132;28;51976;-55
2021/09/06 05:38:10;;;;;;;;;21.50;20.75;;;;;;;;4993749;28;50887;-53
2021/09/06 05:40:35;;;;;;;;;32.25;31.00;;;;;;;;4994106;28;51191;-55
2021/09/06 05:43:00;;;;;;;;;29.50;27.25;;;;;;;;4992752;28;50923;-51
2021/09/06 05:45:26;;;;;;;;;23.25;22.25;;;;;;;;4995236;28;52019;-54
2021/09/06 05:47:51;;;;;;;;;24.50;24.00;;;;;;;;4993538;28;51020;-55
2021/09/06 05:50:17;;;;;;;;;24.25;23.75;;;;;;;;4995273;28;51226;-56
2021/09/06 05:52:44;;;;;;;;;26.25;26.00;;;;;;;;4993188;28;51017;-55
2021/09/06 05:55:09;;;;;;;;;24.00;23.25;;;;;;;;4993118;28;51171;-52
2021/09/06 05:57:34;;;;;;;;;17.00;16.00;;;;;;;;4993776;28;51109;-55
2021/09/06 05:59:59;;;;;;;;;22.50;22.50;;;;;;;;4991281;28;51078;-54
2021/09/06 06:02:25;;;;;;;;;22.50;21.75;;;;;;;;4988524;28;50967;-54
2021/09/06 06:04:50;;;;;;;;;23.75;22.25;;;;;;;;4994514;28;51296;-54
2021/09/06 06:07:15;;;;;;;;;24.50;24.50;;;;;;;;4994205;28;52003;-54
2021/09/06 06:09:40;;;;;;;;;22.75;22.00;;;;;;;;4992950;28;51169;-55
2021/09/06 06:12:05;;;;;;;;;27.50;25.00;;;;;;;;4993914;28;51082;-54
2021/09/06 06:14:31;;;;;;;;;24.25;23.25;;;;;;;;4986256;28;52053;-54
2021/09/06 06:16:56;;;;;;;;;24.50;23.50;;;;;;;;4995057;28;51152;-54
2021/09/06 06:19:21;;;;;;;;;24.00;22.00;;;;;;;;4992219;28;51370;-55
2021/09/06 06:21:46;;;;;;;;;24.25;23.75;;;;;;;;4996435;28;51041;-55
2021/09/06 06:24:12;;;;;;;;;25.00;24.00;;;;;;;;4992282;28;51084;-51
2021/09/06 06:26:37;;;;;;;;;24.75;22.75;;;;;;;;4996056;28;51120;-55
2021/09/06 06:29:02;;;;;;;;;25.50;24.00;;;;;;;;4992802;28;51003;-54
2021/09/06 06:31:27;;;;;;;;;26.00;23.00;;;;;;;;4995580;28;50994;-51
2021/09/06 06:33:52;;;;;;;;;24.00;22.50;;;;;;;;4987818;28;51728;-53
2021/09/06 06:36:18;;;;;;;;;21.00;20.67;;;;;;;;4993628;28;51005;-53
2021/09/06 06:38:45;;;;;;;;;24.00;23.00;;;;;;;;4990859;28;51451;-53
2021/09/06 06:41:10;;;;;;;;;23.00;22.50;;;;;;;;4994022;28;51258;-53
2021/09/06 06:43:35;;;;;;;;;25.00;23.75;;;;;;;;4990814;28;50986;-53
2021/09/06 06:46:00;;;;;;;;;27.00;26.00;;;;;;;;4995059;28;51081;-53
2021/09/06 06:48:26;;;;;;;;;30.25;29.00;;;;;;;;4992335;28;51000;-53
2021/09/06 06:50:51;;;;;;;;;27.75;27.00;;;;;;;;4993468;28;51172;-55
2021/09/06 06:53:16;;;;;;;;;31.75;29.25;;;;;;;;4990954;28;52182;-53
2021/09/06 06:55:42;;;;;;;;;27.75;27.50;;;;;;;;4992037;28;51026;-56
2021/09/06 06:58:07;;;;;;;;;35.75;30.75;;;;;;;;4992487;28;50929;-55
2021/09/06 07:00:33;;;;;;;;;27.00;26.50;;;;;;;;4987854;28;51204;-54
2021/09/06 07:02:58;;;;;;;;;25.00;24.75;;;;;;;;4992414;28;52862;-55
2021/09/06 07:05:24;;;;;;;;;28.25;27.50;;;;;;;;4994178;28;51155;-54
2021/09/06 07:07:49;;;;;;;;;27.00;25.25;;;;;;;;4988959;28;51120;-56
2021/09/06 07:10:15;;;;;;;;;24.00;22.75;;;;;;;;4988505;28;51858;-54
2021/09/06 07:12:40;;;;;;;;;25.75;25.75;;;;;;;;4989263;28;52142;-53
2021/09/06 07:15:06;;;;;;;;;27.75;27.25;;;;;;;;4990713;28;51078;-56
2021/09/06 07:17:32;;;;;;;;;27.75;27.75;;;;;;;;4990529;28;51494;-54
2021/09/06 07:19:57;;;;;;;;;28.75;28.00;;;;;;;;4990811;28;51500;-54
2021/09/06 07:22:22;;;;;;;;;26.75;25.75;;;;;;;;4991255;28;51112;-55
2021/09/06 07:24:48;;;;;;;;;24.25;24.25;;;;;;;;4989861;28;51124;-56
2021/09/06 07:27:13;;;;;;;;;26.50;26.50;;;;;;;;4990926;28;50998;-54
2021/09/06 07:29:38;;;;;;;;;23.25;21.75;;;;;;;;4990396;28;51343;-56
2021/09/06 07:32:03;;;;;;;;;25.25;24.75;;;;;;;;4989681;28;52014;-54
2021/09/06 07:34:34;;;;;;;;;25.50;25.50;;;;;;;;4990469;28;51327;-55
2021/09/06 07:37:00;;;;;;;;;26.00;25.50;;;;;;;;4991462;28;50982;-55
2021/09/06 07:39:25;;;;;;;;;25.00;25.00;;;;;;;;4990986;28;52230;-55
2021/09/06 07:41:50;;;;;;;;;27.00;25.75;;;;;;;;4990589;28;52571;-56
2021/09/06 07:44:15;;;;;;;;;23.50;22.75;;;;;;;;4990436;28;51106;-54
2021/09/06 07:46:40;;;;;;;;;24.25;23.00;;;;;;;;4990461;28;51306;-56
2021/09/06 07:49:06;;;;;;;;;23.75;23.75;;;;;;;;4991472;28;51086;-56
2021/09/06 07:51:31;;;;;;;;;17.50;16.25;;;;;;;;4988775;28;51483;-55
2021/09/06 07:53:56;;;;;;;;;16.75;16.50;;;;;;;;4991399;28;51050;-54
2021/09/06 07:56:22;;;;;;;;;17.25;17.25;;;;;;;;4991628;28;51045;-53
2021/09/06 07:58:47;;;;;;;;;18.75;18.50;;;;;;;;4992231;28;51108;-53
2021/09/06 08:01:12;;;;;;;;;20.25;20.00;;;;;;;;4989799;28;51243;-55
2021/09/06 08:03:37;;;;;;;;;16.50;15.75;;;;;;;;4991639;28;51387;-53
2021/09/06 08:06:02;;;;;;;;;16.25;16.25;;;;;;;;4991634;28;50954;-55
2021/09/06 08:08:28;;;;;;;;;18.00;17.25;;;;;;;;4992366;28;51260;-54
2021/09/06 08:10:53;;;;;;;;;15.50;15.50;;;;;;;;4990927;28;52355;-54
2021/09/06 08:13:18;;;;;;;;;27.75;26.00;;;;;;;;4991552;28;51028;-53
2021/09/06 08:15:43;;;;;;;;;18.50;17.50;;;;;;;;4991358;28;50986;-55
2021/09/06 08:18:10;;;;;;;;;17.00;16.00;;;;;;;;4991333;28;50806;-51
2021/09/06 08:20:35;;;;;;;;;18.25;17.50;;;;;;;;4991015;28;52031;-54
2021/09/06 08:23:00;;;;;;;;;15.50;15.50;;;;;;;;4993589;28;51076;-55
2021/09/06 08:25:25;;;;;;;;;18.00;18.00;;;;;;;;4994513;28;50983;-55
2021/09/06 08:27:51;;;;;;;;;16.75;16.75;;;;;;;;4995387;28;51442;-55
2021/09/06 08:30:18;;;;;;;;;17.00;17.00;;;;;;;;4994971;28;52273;-55
2021/09/06 08:32:44;;;;;;;;;16.00;16.00;;;;;;;;4995014;28;51118;-54
2021/09/06 08:35:09;;;;;;;;;16.50;15.50;;;;;;;;4993920;28;51207;-54
2021/09/06 08:37:35;;;;;;;;;13.75;13.75;;;;;;;;4994017;28;51471;-55
2021/09/06 08:40:00;;;;;;;;;15.50;15.50;;;;;;;;4994665;28;52256;-55
2021/09/06 08:42:26;;;;;;;;;13.75;13.25;;;;;;;;4993472;28;51074;-57
2021/09/06 08:44:51;;;;;;;;;15.50;15.25;;;;;;;;4994448;28;51609;-56
2021/09/06 08:47:17;;;;;;;;;18.00;17.50;;;;;;;;4995263;28;51244;-54
2021/09/06 08:49:44;;;;;;;;;14.50;14.50;;;;;;;;4994806;28;51283;-56
2021/09/06 08:52:09;;;;;;;;;16.25;16.25;;;;;;;;4994909;28;50891;-56
2021/09/06 08:54:34;;;;;;;;;15.75;15.75;;;;;;;;4993634;28;51152;-56
2021/09/06 08:56:59;;;;;;;;;15.25;15.25;;;;;;;;4994779;28;50987;-56
2021/09/06 08:59:24;;;;;;;;;15.50;13.75;;;;;;;;4994555;28;51141;-56
2021/09/06 09:01:52;;;;;;;;;15.00;15.00;;;;;;;;4994720;28;50923;-56
2021/09/06 09:04:17;;;;;;;;;15.00;15.00;;;;;;;;4994226;28;51150;-57
2021/09/06 09:06:46;;;;;;;;;14.75;14.75;;;;;;;;4994284;28;51106;-56
2021/09/06 09:09:11;;;;;;;;;15.50;15.50;;;;;;;;4994340;28;52319;-56
2021/09/06 09:11:36;;;;;;;;;14.25;14.25;;;;;;;;4994282;28;50903;-57
2021/09/06 09:14:12;;;;;;;;;13.75;13.00;;;;;;;;4993569;28;51154;-55
2021/09/06 09:16:37;;;;;;;;;13.75;13.75;;;;;;;;4981473;28;51038;-56
2021/09/06 09:19:07;;;;;;;;;15.50;14.25;;;;;;;;4993991;28;52076;-56
2021/09/06 09:21:32;;;;;;;;;13.75;13.75;;;;;;;;4994423;28;51002;-56
2021/09/06 09:24:01;;;;;;;;;12.00;11.75;;;;;;;;4993590;28;51184;-57
2021/09/06 09:26:28;;;;;;;;;15.50;14.75;;;;;;;;4994583;28;51117;-56
2021/09/06 09:28:53;;;;;;;;;17.25;16.50;;;;;;;;4993293;28;51634;-56
2021/09/06 09:31:20;;;;;;;;;15.25;15.00;;;;;;;;4993807;28;51005;-56
2021/09/06 09:33:47;;;;;;;;;14.00;14.00;;;;;;;;4992182;28;50885;-56
2021/09/06 09:36:12;;;;;;;;;13.00;13.00;;;;;;;;4992724;28;51385;-55
2021/09/06 09:38:38;;;;;;;;;14.00;14.00;;;;;;;;4993697;28;52478;-57
2021/09/06 09:41:11;;;;;;;;;15.00;13.75;;;;;;;;4993946;28;50935;-57
2021/09/06 09:43:36;;;;;;;;;10.00;10.00;;;;;;;;4993392;28;50986;-57
2021/09/06 09:46:02;;;;;;;;;15.50;15.50;;;;;;;;4993402;28;50879;-55
2021/09/06 09:48:28;;;;;;;;;13.25;13.25;;;;;;;;4993459;28;52279;-56
2021/09/06 09:50:53;;;;;;;;;12.00;12.00;;;;;;;;4993917;28;51056;-56
2021/09/06 09:53:18;;;;;;;;;12.25;12.25;;;;;;;;4993587;28;51084;-57
2021/09/06 09:55:43;;;;;;;;;14.00;14.00;;;;;;;;4992952;28;51017;-55
2021/09/06 09:58:09;;;;;;;;;11.50;11.50;;;;;;;;4993239;28;51041;-54
2021/09/06 10:00:36;;;;;;;;;12.00;12.00;;;;;;;;4992966;28;50936;-56
2021/09/06 10:03:03;;;;;;;;;15.25;15.00;;;;;;;;4993105;28;51051;-56
2021/09/06 10:05:32;;;;;;;;;14.00;13.75;;;;;;;;4992145;28;51159;-57
2021/09/06 10:07:59;;;;;;;;;14.75;14.50;;;;;;;;4991922;28;53900;-56
2021/09/06 10:10:25;;;;;;;;;13.25;12.75;;;;;;;;4991771;28;50997;-57
2021/09/06 10:13:04;;;;;;;;;14.00;14.00;;;;;;;;4992198;28;51151;-56
2021/09/06 10:15:29;;;;;;;;;14.25;13.25;;;;;;;;4992012;28;51258;-54
2021/09/06 10:17:55;;;;;;;;;13.75;13.25;;;;;;;;4993029;28;51152;-54
2021/09/06 10:20:22;;;;;;;;;16.50;16.50;;;;;;;;4992094;28;50920;-57
2021/09/06 10:22:48;;;;;;;;;12.75;12.75;;;;;;;;4991758;28;51056;-56
2021/09/06 10:25:18;;;;;;;;;13.25;12.75;;;;;;;;4992425;28;51381;-56
2021/09/06 10:27:50;;;;;;;;;12.00;11.75;;;;;;;;4992538;28;51440;-56
2021/09/06 10:30:16;;;;;;;;;12.50;12.00;;;;;;;;4992340;28;51125;-55
2021/09/06 10:32:44;;;;;;;;;13.25;13.00;;;;;;;;4992318;28;51199;-56
2021/09/06 10:35:15;;;;;;;;;13.25;13.25;;;;;;;;4992174;28;51196;-57
2021/09/06 10:37:42;;;;;;;;;12.75;12.75;;;;;;;;4980934;28;51081;-56
2021/09/06 10:40:09;;;;;;;;;12.50;12.50;;;;;;;;4992671;28;50970;-56
2021/09/06 10:42:35;;;;;;;;;10.25;10.25;;;;;;;;4992815;28;51060;-55
2021/09/06 10:45:01;;;;;;;;;11.25;11.25;;;;;;;;4990174;28;51194;-56
2021/09/06 10:47:33;;;;;;;;;10.50;10.50;;;;;;;;4990754;28;51968;-56
2021/09/06 10:49:58;;;;;;;;;11.25;11.25;;;;;;;;4992459;28;51267;-55
2021/09/06 10:52:25;;;;;;;;;11.50;11.50;;;;;;;;4992724;28;51014;-56
2021/09/06 10:54:50;;;;;;;;;12.00;12.00;;;;;;;;4991680;28;51075;-60
2021/09/06 10:57:15;;;;;;;;;12.25;11.50;;;;;;;;4992188;28;52369;-56
2021/09/06 10:59:44;;;;;;;;;13.00;12.25;;;;;;;;4992161;28;50968;-56
2021/09/06 11:02:09;;;;;;;;;10.00;10.00;;;;;;;;4992972;28;51104;-56
2021/09/06 11:04:34;;;;;;;;;12.25;12.25;;;;;;;;4991594;28;51079;-54
2021/09/06 11:07:07;;;;;;;;;13.50;13.50;;;;;;;;4992563;28;51771;-56
2021/09/06 11:09:34;;;;;;;;;13.75;13.75;;;;;;;;4992224;28;51212;-54
2021/09/06 11:12:02;;;;;;;;;14.75;14.00;;;;;;;;4992227;28;51066;-55
2021/09/06 11:14:36;;;;;;;;;11.50;10.75;;;;;;;;4990966;28;51399;-55
2021/09/06 11:17:02;;;;;;;;;11.25;11.25;;;;;;;;4992018;28;51014;-55
2021/09/06 11:19:28;;;;;;;;;14.25;14.00;;;;;;;;4990197;28;51013;-56
2021/09/06 11:21:57;;;;;;;;;14.75;14.75;;;;;;;;4992148;28;51082;-54
2021/09/06 11:24:22;;;;;;;;;14.75;14.75;;;;;;;;4990813;28;51380;-54
2021/09/06 11:26:47;;;;;;;;;12.50;12.25;;;;;;;;4991563;28;51970;-57
2021/09/06 11:29:12;;;;;;;;;12.25;12.25;;;;;;;;4991467;28;51018;-56
2021/09/06 11:31:38;;;;;;;;;14.25;13.75;;;;;;;;4992082;28;51165;-55
2021/09/06 11:34:04;;;;;;;;;12.00;12.00;;;;;;;;4990422;28;51352;-56
2021/09/06 11:36:30;;;;;;;;;13.75;13.75;;;;;;;;4990997;28;51777;-55
2021/09/06 11:38:56;;;;;;;;;10.50;10.00;;;;;;;;4991758;28;51451;-55
2021/09/06 11:41:22;;;;;;;;;15.25;15.25;;;;;;;;4991832;28;50956;-55
2021/09/06 11:43:48;;;;;;;;;13.75;13.75;;;;;;;;4991711;28;51013;-55
2021/09/06 11:46:16;;;;;;;;;12.50;12.50;;;;;;;;4989811;28;51076;-56
2021/09/06 11:48:46;;;;;;;;;13.00;13.00;;;;;;;;4990921;28;50887;-55
2021/09/06 11:51:11;;;;;;;;;14.00;14.00;;;;;;;;4991522;28;51045;-54
2021/09/06 11:53:37;;;;;;;;;15.50;15.00;;;;;;;;4991263;28;51117;-56
2021/09/06 11:56:02;;;;;;;;;12.00;11.00;;;;;;;;4988903;28;53915;-54
2021/09/06 11:58:29;;;;;;;;;11.75;11.75;;;;;;;;4993644;28;51038;-53
2021/09/06 12:01:04;;;;;;;;;13.75;13.25;;;;;;;;4995458;28;50997;-55
2021/09/06 12:03:30;;;;;;;;;12.00;12.00;;;;;;;;4995229;28;51299;-53
2021/09/06 12:06:03;;;;;;;;;11.50;10.75;;;;;;;;4994314;28;51692;-54
2021/09/06 12:08:28;;;;;;;;;22.75;22.75;;;;;;;;4994687;28;50866;-56
2021/09/06 12:11:03;;;;;;;;;11.25;11.25;;;;;;;;4994704;28;50999;-54
2021/09/06 12:13:29;;;;;;;;;16.00;13.25;;;;;;;;4993315;28;51069;-55
2021/09/06 12:16:00;;;;;;;;;12.00;11.25;;;;;;;;4994856;28;51355;-55
2021/09/06 12:18:39;;;;;;;;;12.00;12.00;;;;;;;;4994573;28;51116;-55
2021/09/06 12:21:07;;;;;;;;;12.25;12.25;;;;;;;;4994430;28;50902;-56
2021/09/06 12:23:34;;;;;;;;;12.00;12.00;;;;;;;;4994513;28;50884;-54
2021/09/06 12:25:59;;;;;;;;;12.67;12.67;;;;;;;;4994186;28;53020;-56
2021/09/06 12:28:25;;;;;;;;;9.33;9.33;;;;;;;;4994534;28;51047;-55
2021/09/06 12:31:01;;;;;;;;;12.00;12.00;;;;;;;;4994754;28;51072;-56
2021/09/06 12:33:27;;;;;;;;;12.00;12.00;;;;;;;;4993749;28;51363;-56
2021/09/06 12:35:52;;;;;;;;;11.00;11.00;;;;;;;;4994329;28;51062;-55
2021/09/06 12:38:17;;;;;;;;;12.00;12.00;;;;;;;;4994800;28;51019;-55
2021/09/06 12:40:42;;;;;;;;;7.50;7.00;;;;;;;;4994602;28;51065;-56
2021/09/06 12:43:08;;;;;;;;;12.00;12.00;;;;;;;;4993820;28;51080;-55
2021/09/06 12:45:33;;;;;;;;;9.33;9.33;;;;;;;;5025736;28;52399;-55
2021/09/06 12:47:58;;;;;;;;;9.67;9.67;;;;;;;;4993126;28;51014;-56
2021/09/06 12:50:24;;;;;;;;;12.67;12.67;;;;;;;;4994310;28;51026;-54
2021/09/06 12:52:49;;;;;;;;;10.67;10.00;;;;;;;;4993850;28;51145;-55
2021/09/06 12:55:14;;;;;;;;;9.67;9.67;;;;;;;;4993808;28;52274;-55
2021/09/06 12:57:40;;;;;;;;;10.00;10.00;;;;;;;;4994135;28;50974;-55
2021/09/06 13:00:05;;;;;;;;;10.00;10.00;;;;;;;;4994074;28;50845;-56
2021/09/06 13:02:31;;;;;;;;;12.67;11.67;;;;;;;;4993939;28;50867;-56
2021/09/06 13:04:56;;;;;;;;;13.25;12.75;;;;;;;;4991665;28;53139;-54
2021/09/06 13:07:21;;;;;;;;;13.00;12.33;;;;;;;;4993365;28;50922;-55
2021/09/06 13:09:46;;;;;;;;;13.00;12.00;;;;;;;;4993357;28;51174;-55
2021/09/06 13:12:12;;;;;;;;;20.00;18.25;;;;;;;;4993572;28;51337;-56
2021/09/06 13:14:37;;;;;;;;;11.75;11.75;;;;;;;;4991449;28;51130;-55
2021/09/06 13:17:02;;;;;;;;;11.00;10.33;;;;;;;;4992127;28;50904;-54
2021/09/06 13:19:27;;;;;;;;;14.25;13.75;;;;;;;;4993501;28;51054;-56
2021/09/06 13:21:53;;;;;;;;;13.67;13.00;;;;;;;;4994270;28;51176;-55
2021/09/06 13:24:18;;;;;;;;;9.67;9.67;;;;;;;;4992935;28;51404;-56
2021/09/06 13:26:43;;;;;;;;;9.00;9.00;;;;;;;;4993481;28;51184;-61
2021/09/06 13:29:09;;;;;;;;;11.33;11.33;;;;;;;;4988129;28;50941;-55
2021/09/06 13:31:34;;;;;;;;;12.00;12.00;;;;;;;;4992359;28;51338;-55
2021/09/06 13:34:01;;;;;;;;;13.67;13.33;;;;;;;;4989462;28;52202;-56
2021/09/06 13:36:26;;;;;;;;;14.00;12.00;;;;;;;;4986234;28;51157;-56
2021/09/06 13:38:52;;;;;;;;;11.25;11.00;;;;;;;;4991656;28;51094;-57
2021/09/06 13:41:17;;;;;;;;;10.25;10.25;;;;;;;;4993098;28;51104;-55
2021/09/06 13:43:42;;;;;;;;;12.25;12.00;;;;;;;;4989830;28;51390;-55
2021/09/06 13:46:08;;;;;;;;;14.50;14.00;;;;;;;;4996465;28;51046;-54
2021/09/06 13:48:34;;;;;;;;;13.00;13.00;;;;;;;;4996476;28;50975;-55
2021/09/06 13:50:59;;;;;;;;;9.67;9.00;;;;;;;;4992888;28;50919;-55
2021/09/06 13:53:24;;;;;;;;;13.00;12.00;;;;;;;;4991984;28;51754;-55
2021/09/06 13:55:49;;;;;;;;;14.00;13.75;;;;;;;;4992604;28;51038;-55
2021/09/06 13:58:15;;;;;;;;;13.00;12.50;;;;;;;;4992236;28;51211;-54
2021/09/06 14:00:40;;;;;;;;;11.67;11.67;;;;;;;;4993009;28;50895;-55
2021/09/06 14:03:05;;;;;;;;;11.00;11.00;;;;;;;;4991331;28;51888;-55
2021/09/06 14:05:31;;;;;;;;;14.00;13.33;;;;;;;;4992649;28;51449;-56
2021/09/06 14:07:57;;;;;;;;;10.67;10.00;;;;;;;;4992522;28;51077;-56
2021/09/06 14:10:23;;;;;;;;;10.33;9.67;;;;;;;;4992965;28;51185;-55